Time;durP1;ratioP1;P1;durP2;ratioP2;P2;SDS_P1;SDS_P2;PMS_P1;PMS_P2;Temp;Humidity;BMP_temperature;BMP_pressure;BME280_temperature;BME280_humidity;BME280_pressure;Samples;Min_cycle;Max_cycle;Signal;HPM_P1;HPM_P2
2023/05/08 00:01:49;;;;;;;9.82;7.03;;;;;;;13.37;nan;100579.53;4929038;29;20032;-72
2023/05/08 00:04:15;;;;;;;11.50;6.65;;;;;;;13.60;nan;100609.56;4937580;29;20155;-73
2023/05/08 00:06:40;;;;;;;11.13;6.95;;;;;;;13.64;nan;100605.38;4931229;29;20044;-73
2023/05/08 00:09:05;;;;;;;14.57;6.43;;;;;;;13.66;nan;100616.50;4935451;29;20062;-73
2023/05/08 00:11:33;;;;;;;10.85;7.00;;;;;;;13.70;nan;100630.88;4933508;29;20032;-74
2023/05/08 00:13:59;;;;;;;11.77;6.47;;;;;;;13.62;nan;100628.63;4923702;29;20044;-76
2023/05/08 00:16:24;;;;;;;10.90;6.93;;;;;;;13.53;nan;100603.63;4922255;29;20023;-74
2023/05/08 00:18:52;;;;;;;11.38;6.70;;;;;;;13.72;nan;100635.91;4922405;29;20442;-76
2023/05/08 00:21:17;;;;;;;10.88;7.53;;;;;;;13.67;nan;100618.13;4924139;29;20110;-74
2023/05/08 00:23:43;;;;;;;10.95;7.57;;;;;;;13.69;nan;100623.16;4923174;29;20036;-74
2023/05/08 00:26:08;;;;;;;19.20;8.10;;;;;;;13.66;nan;100616.50;4921726;29;20036;-74
2023/05/08 00:28:33;;;;;;;12.32;8.05;;;;;;;13.68;nan;100624.22;4923379;29;20145;-75
2023/05/08 00:31:00;;;;;;;14.30;8.80;;;;;;;13.59;nan;100621.16;4920651;29;20040;-76
2023/05/08 00:33:26;;;;;;;13.25;8.35;;;;;;;13.44;nan;100602.41;4918580;29;20442;-75
2023/05/08 00:35:57;;;;;;;14.90;8.43;;;;;;;13.45;nan;100622.50;4928353;29;20039;-74
2023/05/08 00:38:23;;;;;;;18.63;9.80;;;;;;;13.37;nan;100624.50;4918411;29;20036;-73
2023/05/08 00:40:48;;;;;;;12.82;8.98;;;;;;;13.36;nan;100614.97;4924666;29;20100;-75
2023/05/08 00:43:13;;;;;;;14.80;9.30;;;;;;;13.24;nan;100627.41;4918668;29;20101;-75
2023/05/08 00:45:40;;;;;;;15.63;8.55;;;;;;;13.31;nan;100637.84;4920680;29;20034;-74
2023/05/08 00:48:06;;;;;;;12.13;8.65;;;;;;;13.25;nan;100622.94;4922924;29;20074;-74
2023/05/08 00:50:32;;;;;;;16.23;8.35;;;;;;;13.08;nan;100634.25;4922723;29;20035;-73
2023/05/08 00:52:59;;;;;;;13.85;7.60;;;;;;;13.01;nan;100625.66;4920723;28;20416;-74
2023/05/08 00:55:24;;;;;;;12.45;7.40;;;;;;;12.99;nan;100635.66;4920244;29;20534;-76
2023/05/08 00:57:51;;;;;;;11.80;6.53;;;;;;;12.91;nan;100633.41;4919028;29;20178;-74
2023/05/08 01:00:17;;;;;;;9.13;6.50;;;;;;;12.85;nan;100632.47;4922847;29;20039;-73
2023/05/08 01:02:44;;;;;;;10.38;6.32;;;;;;;12.85;nan;100627.19;4919568;29;20537;-73
2023/05/08 01:05:10;;;;;;;10.82;6.07;;;;;;;12.68;nan;100628.97;4921242;29;20091;-74
2023/05/08 01:07:37;;;;;;;9.77;6.20;;;;;;;12.55;nan;100630.81;4921414;29;20031;-74
2023/05/08 01:10:03;;;;;;;6.10;4.88;;;;;;;12.46;nan;100623.47;4919816;29;20150;-74
2023/05/08 01:12:48;;;;;;;11.20;5.95;;;;;;;12.54;nan;100642.41;4919688;29;20036;-74
2023/05/08 01:15:20;;;;;;;10.38;5.68;;;;;;;12.38;nan;100642.31;4917460;29;20536;-74
2023/05/08 01:18:01;;;;;;;10.35;5.60;;;;;;;12.28;nan;100658.72;4920404;29;20043;-74
2023/05/08 01:20:39;;;;;;;10.40;5.22;;;;;;;12.13;nan;100669.75;4917422;29;20141;-75
2023/05/08 01:23:50;;;;;;;12.65;5.80;;;;;;;12.00;nan;100665.50;4919575;29;20521;-74
2023/05/08 01:26:18;;;;;;;10.13;5.88;;;;;;;11.95;nan;100683.03;4922044;29;20032;-73
2023/05/08 01:29:05;;;;;;;8.23;5.55;;;;;;;11.84;nan;100672.19;4920205;29;20431;-73
2023/05/08 01:31:53;;;;;;;13.23;5.88;;;;;;;11.84;nan;100664.28;4922987;29;20036;-73
2023/05/08 01:34:26;;;;;;;10.13;5.72;;;;;;;11.83;nan;100686.44;4919302;29;20048;-73
2023/05/08 01:37:05;;;;;;;10.88;5.65;;;;;;;11.79;nan;100742.50;4922163;29;20155;-74
2023/05/08 01:39:40;;;;;;;11.55;5.60;;;;;;;11.86;nan;100753.78;4923830;29;20442;-75
2023/05/08 01:42:34;;;;;;;9.27;5.57;;;;;;;11.61;nan;100694.06;4920972;29;20059;-75
2023/05/08 01:45:05;;;;;;;9.75;5.90;;;;;;;11.52;nan;100737.59;4921351;29;20031;-73
2023/05/08 01:47:35;;;;;;;10.00;5.70;;;;;;;11.57;nan;100758.81;4925209;29;20087;-74
2023/05/08 01:50:10;;;;;;;9.15;6.07;;;;;;;11.38;nan;100721.13;4925478;29;20110;-75
2023/05/08 01:52:44;;;;;;;11.18;6.32;;;;;;;11.16;nan;100726.06;4926651;29;20040;-73
2023/05/08 01:55:16;;;;;;;17.40;6.68;;;;;;;11.19;nan;100749.31;4924722;29;20028;-75
2023/05/08 01:57:48;;;;;;;13.25;6.07;;;;;;;11.08;nan;100747.41;4925399;29;20032;-75
2023/05/08 02:00:17;;;;;;;18.23;8.07;;;;;;;10.98;nan;100726.03;4936749;28;20603;-74
2023/05/08 02:02:43;;;;;;;16.65;6.32;;;;;;;10.90;nan;100732.41;4924043;29;20051;-73
2023/05/08 02:05:10;;;;;;;14.23;7.10;;;;;;;10.72;nan;100721.84;4924529;29;20079;-73
2023/05/08 02:07:39;;;;;;;14.48;7.90;;;;;;;10.51;nan;100717.78;4922258;28;20031;-74
2023/05/08 02:10:07;;;;;;;10.82;6.65;;;;;;;10.58;nan;100748.34;4923485;29;20111;-74
2023/05/08 02:12:36;;;;;;;12.25;7.90;;;;;;;10.61;nan;100734.72;4922278;29;20055;-72
2023/05/08 02:15:02;;;;;;;12.15;7.13;;;;;;;10.55;nan;100722.41;4925375;29;20024;-74
2023/05/08 02:17:29;;;;;;;11.90;7.40;;;;;;;10.55;nan;100717.13;4922668;29;20051;-73
2023/05/08 02:19:57;;;;;;;17.77;7.57;;;;;;;10.45;nan;100702.88;4926658;29;20394;-74
2023/05/08 02:22:25;;;;;;;12.35;6.85;;;;;;;10.40;nan;100716.69;4921801;29;20130;-74
2023/05/08 02:24:54;;;;;;;12.43;7.20;;;;;;;10.22;nan;100715.59;4924563;29;20106;-74
2023/05/08 02:27:25;;;;;;;13.63;7.60;;;;;;;10.17;nan;100714.59;4924943;29;20039;-73
2023/05/08 02:29:52;;;;;;;14.73;7.53;;;;;;;10.00;nan;100699.31;4921480;29;20401;-75
2023/05/08 02:32:20;;;;;;;12.93;7.63;;;;;;;9.93;nan;100716.19;4923949;29;20131;-73
2023/05/08 02:34:47;;;;;;;11.45;7.22;;;;;;;9.82;nan;100712.41;4923803;29;20079;-74
2023/05/08 02:37:15;;;;;;;13.57;7.93;;;;;;;9.80;nan;100722.34;4923371;29;20113;-73
2023/05/08 02:39:42;;;;;;;14.75;8.30;;;;;;;9.75;nan;100730.88;4920678;29;20024;-74
2023/05/08 02:42:08;;;;;;;11.90;7.55;;;;;;;9.81;nan;100737.09;4922732;29;20028;-74
2023/05/08 02:44:33;;;;;;;14.07;8.70;;;;;;;9.69;nan;100721.16;4923490;29;20032;-73
2023/05/08 02:47:34;;;;;;;17.27;8.25;;;;;;;9.70;nan;100735.94;4921184;29;20458;-74
2023/05/08 02:50:12;;;;;;;13.60;7.93;;;;;;;9.64;nan;100720.22;4922203;29;20099;-74
2023/05/08 02:52:45;;;;;;;17.17;8.18;;;;;;;9.65;nan;100742.84;4920461;29;20028;-73
2023/05/08 02:55:33;;;;;;;14.60;8.13;;;;;;;9.52;nan;100717.44;4921925;29;20663;-73
2023/05/08 02:58:04;;;;;;;13.13;8.05;;;;;;;9.56;nan;100732.56;4922655;29;20067;-73
2023/05/08 03:00:57;;;;;;;11.48;8.20;;;;;;;9.54;nan;100736.44;4922933;28;20533;-72
2023/05/08 03:03:26;;;;;;;14.13;8.55;;;;;;;9.42;nan;100719.72;4923704;29;20418;-74
2023/05/08 03:05:55;;;;;;;11.93;7.80;;;;;;;9.32;nan;100702.56;4928968;29;20047;-74
2023/05/08 03:08:28;;;;;;;11.80;8.00;;;;;;;9.42;nan;100714.44;4920485;29;20032;-73
2023/05/08 03:10:57;;;;;;;13.60;8.38;;;;;;;9.31;nan;100708.00;4920333;29;20034;-74
2023/05/08 03:13:26;;;;;;;13.20;8.15;;;;;;;9.32;nan;100713.06;4920645;29;20032;-74
2023/05/08 03:15:55;;;;;;;16.13;8.37;;;;;;;9.19;nan;100709.69;4922503;29;20031;-73
2023/05/08 03:18:24;;;;;;;;;;;;;;;9.08;nan;100737.41;4926126;29;20138;-73
2023/05/08 03:20:53;;;;;;;11.82;8.00;;;;;;;9.10;nan;100746.72;4931496;29;19918;-73
2023/05/08 03:23:20;;;;;;;14.20;8.30;;;;;;;8.79;nan;100697.50;4928565;29;20039;-74
2023/05/08 03:25:45;;;;;;;12.73;8.48;;;;;;;9.01;nan;100715.63;4930768;29;20039;-73
2023/05/08 03:28:12;;;;;;;11.82;7.97;;;;;;;9.10;nan;100727.50;4928062;29;20114;-74
2023/05/08 03:30:40;;;;;;;14.70;8.77;;;;;;;9.03;nan;100731.97;4926324;29;20027;-73
2023/05/08 03:33:07;;;;;;;18.23;8.90;;;;;;;9.03;nan;100740.66;4921494;29;20028;-72
2023/05/08 03:35:37;;;;;;;18.88;8.95;;;;;;;8.95;nan;100732.97;4922642;29;20107;-73
2023/05/08 03:38:07;;;;;;;16.73;9.02;;;;;;;8.89;nan;100729.38;4935762;28;20052;-73
2023/05/08 03:40:43;;;;;;;15.80;8.50;;;;;;;8.73;nan;100714.84;4925000;29;20031;-73
2023/05/08 03:43:10;;;;;;;16.90;8.85;;;;;;;8.81;nan;100736.66;4935646;28;20032;-72
2023/05/08 03:45:37;;;;;;;15.30;8.32;;;;;;;8.80;nan;100756.06;4920398;29;20032;-74
2023/05/08 03:48:07;;;;;;;12.73;8.43;;;;;;;8.88;nan;100776.84;4922459;29;20032;-73
2023/05/08 03:50:35;;;;;;;16.60;9.18;;;;;;;8.81;nan;100778.66;4922133;29;20027;-74
2023/05/08 03:53:01;;;;;;;16.35;9.23;;;;;;;8.89;nan;100788.97;4922425;29;20039;-73
2023/05/08 03:55:26;;;;;;;17.95;9.82;;;;;;;8.76;nan;100781.09;4922143;29;20019;-73
2023/05/08 03:58:16;;;;;;;13.68;8.98;;;;;;;8.63;nan;100781.91;4921880;29;20064;-72
2023/05/08 04:01:00;;;;;;;12.68;8.85;;;;;;;8.62;nan;100790.78;4922862;29;20039;-72
2023/05/08 04:03:38;;;;;;;16.30;8.27;;;;;;;8.63;nan;100808.16;4922429;29;20116;-73
2023/05/08 04:06:30;;;;;;;13.60;7.63;;;;;;;8.58;nan;100797.47;4916821;29;20056;-73
2023/05/08 04:09:11;;;;;;;14.93;8.32;;;;;;;8.64;nan;100804.53;4917269;29;20044;-72
2023/05/08 04:11:55;;;;;;;19.95;7.80;;;;;;;8.60;nan;100801.50;4923219;29;20119;-73
2023/05/08 04:14:29;;;;;;;18.55;7.82;;;;;;;8.63;nan;100798.47;4916132;29;20119;-72
2023/05/08 04:17:01;;;;;;;20.75;9.07;;;;;;;8.57;nan;100787.97;4919097;29;20792;-72
2023/05/08 04:19:33;;;;;;;11.98;7.03;;;;;;;8.53;nan;100795.44;4921050;29;20079;-71
2023/05/08 04:22:05;;;;;;;11.63;7.47;;;;;;;8.44;nan;100799.28;4921016;29;20080;-77
2023/05/08 04:24:34;;;;;;;11.48;7.30;;;;;;;8.32;nan;100775.41;4916753;29;20031;-77
2023/05/08 04:29:35;;;;;;;12.55;7.10;;;;;;;7.84;nan;100705.53;5008593;23;20071;-77
2023/05/08 04:32:05;;;;;;;13.13;6.45;;;;;;;8.26;nan;100784.91;4920751;29;20043;-78
2023/05/08 04:34:32;;;;;;;10.57;6.55;;;;;;;7.89;nan;100776.53;4905269;29;20032;-78
2023/05/08 04:37:05;;;;;;;10.27;6.10;;;;;;;7.94;nan;100777.78;4920303;29;20148;-77
2023/05/08 04:39:32;;;;;;;10.38;6.40;;;;;;;7.85;nan;100777.97;4918596;29;20031;-77
2023/05/08 04:42:02;;;;;;;14.88;6.80;;;;;;;7.82;nan;100774.91;4917073;29;20036;-78
2023/05/08 04:44:31;;;;;;;11.90;6.38;;;;;;;7.84;nan;100757.97;4906795;29;20490;-76
2023/05/08 04:46:56;;;;;;;12.93;5.88;;;;;;;7.90;nan;100777.34;4919348;29;20031;-76
2023/05/08 04:49:22;;;;;;;11.98;6.47;;;;;;;7.91;nan;100784.22;4920112;29;20032;-75
2023/05/08 04:52:00;;;;;;;10.82;6.80;;;;;;;7.90;nan;100787.81;4920677;29;20173;-75
2023/05/08 04:54:26;;;;;;;11.53;6.10;;;;;;;7.55;nan;100753.06;4906421;29;20055;-79
2023/05/08 04:56:51;;;;;;;10.63;5.90;;;;;;;7.81;nan;100804.75;4904771;29;20544;-75
2023/05/08 04:59:17;;;;;;;10.10;6.43;;;;;;;7.82;nan;100806.38;4910195;29;20035;-80
2023/05/08 05:01:45;;;;;;;12.80;6.38;;;;;;;7.81;nan;100795.06;4920004;29;20630;-74
2023/05/08 05:04:11;;;;;;;8.07;5.35;;;;;;;7.83;nan;100793.06;4919306;29;20035;-79
2023/05/08 05:06:36;;;;;;;11.38;6.70;;;;;;;7.66;nan;100789.16;4910485;29;20035;-77
2023/05/08 05:09:02;;;;;;;12.30;7.63;;;;;;;7.54;nan;100788.94;4918888;29;20059;-77
2023/05/08 05:11:27;;;;;;;14.88;6.68;;;;;;;7.61;nan;100788.94;4920252;29;20390;-78
2023/05/08 05:13:53;;;;;;;10.07;6.03;;;;;;;7.65;nan;100790.97;4919030;29;20779;-77
2023/05/08 05:16:18;;;;;;;9.57;5.88;;;;;;;7.61;nan;100804.66;4904988;29;20051;-78
2023/05/08 05:18:43;;;;;;;10.43;5.97;;;;;;;7.55;nan;100792.34;4910347;29;20033;-77
2023/05/08 05:21:10;;;;;;;13.15;6.13;;;;;;;7.62;nan;100798.44;4927458;29;20649;-78
2023/05/08 05:23:35;;;;;;;10.48;5.95;;;;;;;7.46;nan;100778.59;4927113;29;20366;-76
2023/05/08 05:26:01;;;;;;;11.48;6.30;;;;;;;7.54;nan;100798.59;4915625;29;20038;-78
2023/05/08 05:28:26;;;;;;;11.32;6.50;;;;;;;7.59;nan;100818.00;4926108;29;20039;-78
2023/05/08 05:30:52;;;;;;;9.55;5.82;;;;;;;7.63;nan;100802.66;4925332;29;20044;-77
2023/05/08 05:33:17;;;;;;;8.48;5.78;;;;;;;7.58;nan;100805.88;4909635;29;20095;-75
2023/05/08 05:35:43;;;;;;;8.95;6.13;;;;;;;7.57;nan;100803.47;4905491;29;20464;-75
2023/05/08 05:38:08;;;;;;;10.75;5.60;;;;;;;7.61;nan;100809.91;4922756;29;20135;-76
2023/05/08 05:40:34;;;;;;;11.80;6.00;;;;;;;7.60;nan;100808.31;4914615;29;20028;-77
2023/05/08 05:42:59;;;;;;;8.00;5.10;;;;;;;7.66;nan;100828.47;4906124;29;20115;-74
2023/05/08 05:45:25;;;;;;;9.02;5.72;;;;;;;7.60;nan;100803.88;4923196;29;20032;-73
2023/05/08 05:47:52;;;;;;;7.18;4.80;;;;;;;7.53;nan;100810.09;4910115;29;20445;-73
2023/05/08 05:50:18;;;;;;;8.48;5.18;;;;;;;7.62;nan;100820.22;4907797;29;20032;-73
2023/05/08 05:52:44;;;;;;;8.38;5.47;;;;;;;7.65;nan;100822.44;4923348;29;20041;-74
2023/05/08 05:55:10;;;;;;;9.65;4.97;;;;;;;7.59;nan;100819.78;4927042;29;20640;-73
2023/05/08 05:57:35;;;;;;;12.93;6.03;;;;;;;7.65;nan;100827.69;4924026;29;20040;-73
2023/05/08 06:00:01;;;;;;;6.90;5.05;;;;;;;7.70;nan;100836.78;4911396;29;20501;-73
2023/05/08 06:02:27;;;;;;;12.02;4.95;;;;;;;7.61;nan;100829.09;4913216;29;20028;-73
2023/05/08 06:04:52;;;;;;;10.13;4.95;;;;;;;7.67;nan;100836.16;4914443;29;20039;-72
2023/05/08 06:07:19;;;;;;;11.38;5.00;;;;;;;7.62;nan;100828.06;4931920;29;20036;-73
2023/05/08 06:09:46;;;;;;;7.45;4.35;;;;;;;7.53;nan;100828.44;4928434;29;20118;-73
2023/05/08 06:12:11;;;;;;;7.78;4.53;;;;;;;7.65;nan;100848.63;4927045;29;20027;-73
2023/05/08 06:14:37;;;;;;;9.95;4.82;;;;;;;7.64;nan;100847.03;4928962;29;20032;-73
2023/05/08 06:17:02;;;;;;;10.20;5.07;;;;;;;7.60;nan;100845.78;4927883;29;20055;-73
2023/05/08 06:19:28;;;;;;;6.45;4.78;;;;;;;7.62;nan;100856.09;4911090;29;20366;-73
2023/05/08 06:21:54;;;;;;;9.80;5.20;;;;;;;7.57;nan;100848.00;4907262;29;20436;-73
2023/05/08 06:24:19;;;;;;;10.60;4.80;;;;;;;;;;4909560;29;20032;-73
2023/05/08 06:26:45;;;;;;;9.93;4.60;;;;;;;7.69;nan;100858.75;4915565;29;20027;-73
2023/05/08 06:29:11;;;;;;;10.18;4.90;;;;;;;7.69;nan;100859.56;4906184;29;20051;-73
2023/05/08 06:31:37;;;;;;;7.47;5.25;;;;;;;7.66;nan;100855.53;4920822;29;20036;-74
2023/05/08 06:34:02;;;;;;;8.45;5.13;;;;;;;7.59;nan;100840.75;4923660;29;20048;-75
2023/05/08 06:36:28;;;;;;;7.13;4.72;;;;;;;7.80;nan;100861.59;4921896;29;20024;-75
2023/05/08 06:38:53;;;;;;;10.32;4.90;;;;;;;7.77;nan;100859.38;4920622;29;20123;-76
2023/05/08 06:41:18;;;;;;;9.13;5.43;;;;;;;7.88;nan;100864.09;4920458;29;20063;-75
2023/05/08 06:43:44;;;;;;;9.35;5.10;;;;;;;7.78;nan;100858.41;4902475;29;20065;-75
2023/05/08 06:46:09;;;;;;;9.63;5.50;;;;;;;7.99;nan;100870.56;4921481;29;20383;-75
2023/05/08 06:48:35;;;;;;;11.20;5.68;;;;;;;8.05;nan;100869.00;4923418;29;20599;-73
2023/05/08 06:51:01;;;;;;;6.95;4.82;;;;;;;8.13;nan;100878.50;4907691;29;20081;-74
2023/05/08 06:53:26;;;;;;;9.20;4.32;;;;;;;7.69;nan;100811.56;4911485;29;20036;-73
2023/05/08 06:55:52;;;;;;;8.63;5.00;;;;;;;8.01;nan;100865.13;4906926;29;20035;-73
2023/05/08 06:58:17;;;;;;;6.78;4.72;;;;;;;8.24;nan;100891.06;4916903;29;20055;-74
2023/05/08 07:00:43;;;;;;;7.80;4.82;;;;;;;8.08;nan;100858.09;4922059;29;20028;-74
2023/05/08 07:03:08;;;;;;;15.57;7.55;;;;;;;8.25;nan;100877.72;4906736;29;20894;-74
2023/05/08 07:05:34;;;;;;;20.95;7.75;;;;;;;8.29;nan;100873.69;4922772;29;20078;-73
2023/05/08 07:07:59;;;;;;;10.65;6.47;;;;;;;8.32;nan;100872.50;4922716;29;20037;-74
2023/05/08 07:10:25;;;;;;;10.00;5.63;;;;;;;8.39;nan;100877.75;4920658;29;20505;-74
2023/05/08 07:12:50;;;;;;;9.38;4.95;;;;;;;8.48;nan;100890.53;4909970;29;20028;-74
2023/05/08 07:15:16;;;;;;;8.73;5.05;;;;;;;8.58;nan;100890.16;4915825;29;20114;-75
2023/05/08 07:17:42;;;;;;;8.65;4.60;;;;;;;8.59;nan;100893.56;4927753;29;20032;-75
2023/05/08 07:20:08;;;;;;;5.45;4.18;;;;;;;8.62;nan;100887.91;4909321;29;20795;-75
2023/05/08 07:22:33;;;;;;;7.45;5.00;;;;;;;8.71;nan;100892.81;4927030;29;20122;-74
2023/05/08 07:24:59;;;;;;;7.75;5.05;;;;;;;8.83;nan;100893.00;4919550;29;20115;-74
2023/05/08 07:27:24;;;;;;;8.93;5.47;;;;;;;8.84;nan;100884.13;4919240;29;20028;-74
2023/05/08 07:29:50;;;;;;;8.52;5.97;;;;;;;8.81;nan;100863.53;4919680;29;20111;-73
2023/05/08 07:32:15;;;;;;;18.40;6.03;;;;;;;9.02;nan;100894.00;4910218;29;20175;-75
2023/05/08 07:34:42;;;;;;;12.60;8.13;;;;;;;;;;4919473;29;20504;-75
2023/05/08 07:37:07;;;;;;;13.07;7.90;;;;;;;;;;4922323;29;20032;-77
2023/05/08 07:39:33;;;;;;;12.13;7.65;;;;;;;;;;4920662;29;20028;-76
2023/05/08 07:41:58;;;;;;;13.48;6.35;;;;;;;;;;4917839;29;20024;-76
2023/05/08 07:44:23;;;;;;;8.00;5.60;;;;;;;;;;4912998;29;20203;-76
2023/05/08 07:46:48;;;;;;;9.73;5.45;;;;;;;;;;4907269;29;20277;-76
2023/05/08 07:49:14;;;;;;;7.97;4.87;;;;;;;;;;4919593;29;20028;-74
2023/05/08 07:51:40;;;;;;;10.07;5.40;;;;;;;;;;4912175;29;20398;-74
2023/05/08 07:54:05;;;;;;;9.07;6.00;;;;;;;;;;4921234;29;20282;-74
2023/05/08 07:56:30;;;;;;;7.10;4.82;;;;;;;;;;4923972;29;20390;-74
2023/05/08 07:58:56;;;;;;;7.63;4.78;;;;;;;10.06;nan;100908.19;4920354;29;20381;-75
2023/05/08 08:01:21;;;;;;;9.38;4.70;;;;;;;;;;4904811;29;20111;-74
2023/05/08 08:03:46;;;;;;;10.20;5.13;;;;;;;;;;4921932;29;20040;-74
2023/05/08 08:06:12;;;;;;;7.25;4.85;;;;;;;10.35;nan;100908.69;4921048;29;20324;-74
2023/05/08 08:08:38;;;;;;;9.10;5.63;;;;;;;;;;4921215;29;20035;-74
2023/05/08 08:11:03;;;;;;;7.72;5.13;;;;;;;;;;4919107;29;20034;-74
2023/05/08 08:13:28;;;;;;;10.07;5.25;;;;;;;;;;4906239;29;20128;-72
2023/05/08 08:15:54;;;;;;;10.70;5.80;;;;;;;;;;4910877;29;20393;-73
2023/05/08 08:18:19;;;;;;;11.75;5.70;;;;;;;;;;4921051;29;20020;-74
2023/05/08 08:20:44;;;;;;;10.67;5.60;;;;;;;;;;4924003;29;20047;-73
2023/05/08 08:23:09;;;;;;;14.03;5.70;;;;;;;;;;4919113;29;20036;-74
2023/05/08 08:25:35;;;;;;;11.97;5.80;;;;;;;;;;4918808;29;20281;-74
2023/05/08 08:28:00;;;;;;;9.45;5.70;;;;;;;;;;4920856;29;20325;-74
2023/05/08 08:30:26;;;;;;;13.45;6.75;;;;;;;;;;4920996;29;20157;-74
2023/05/08 08:32:51;;;;;;;12.83;6.90;;;;;;;11.58;nan;100900.22;4921093;29;20504;-74
2023/05/08 08:35:17;;;;;;;10.75;6.32;;;;;;;11.75;nan;100905.72;4901417;29;20285;-74
2023/05/08 08:37:42;;;;;;;9.13;5.50;;;;;;;11.66;nan;100870.09;4908034;29;20039;-72
2023/05/08 08:40:08;;;;;;;8.90;6.10;;;;;;;12.00;nan;100913.59;4910645;29;20035;-73
2023/05/08 08:42:33;;;;;;;16.58;6.80;;;;;;;;;;4922081;29;20102;-74
2023/05/08 08:44:59;;;;;;;9.13;5.90;;;;;;;;;;4906822;29;20083;-73
2023/05/08 08:47:28;;;;;;;15.77;6.00;;;;;;;;;;4920370;29;20032;-74
2023/05/08 08:49:54;;;;;;;9.63;5.50;;;;;;;;;;4911553;29;22408;-74
2023/05/08 08:52:35;;;;;;;13.32;6.35;;;;;;;;;;4912076;29;20036;-73
2023/05/08 08:55:02;;;;;;;15.07;6.03;;;;;;;;;;4921461;29;20032;-73
2023/05/08 08:57:29;;;;;;;8.52;5.65;;;;;;;;;;4919472;29;20099;-74
2023/05/08 08:59:55;;;;;;;9.90;6.25;;;;;;;;;;4918628;29;20023;-74
2023/05/08 09:02:21;;;;;;;11.43;5.75;;;;;;;;;;4920635;29;20083;-74
2023/05/08 09:04:48;;;;;;;7.68;5.43;;;;;;;;;;4904876;29;20072;-73
2023/05/08 09:07:13;;;;;;;8.75;5.40;;;;;;;;;;4923744;29;20032;-74
2023/05/08 09:09:43;;;;;;;12.18;5.60;;;;;;;;;;4922373;29;20024;-75
2023/05/08 09:12:11;;;;;;;;;;;;;;;;;;4905322;29;20564;-72
2023/05/08 09:14:36;;;;;;;8.40;5.10;;;;;;;;;;4920224;29;20006;-74
2023/05/08 09:17:01;;;;;;;7.20;5.13;;;;;;;;;;4902633;29;20143;-73
2023/05/08 09:19:27;;;;;;;8.05;4.85;;;;;;;;;;4918552;29;20465;-74
2023/05/08 09:21:53;;;;;;;8.93;5.50;;;;;;;;;;4916338;29;20605;-74
2023/05/08 09:24:18;;;;;;;6.57;4.80;;;;;;;;;;4905910;29;20032;-75
2023/05/08 09:26:43;;;;;;;9.37;5.00;;;;;;;;;;4912143;29;20034;-73
2023/05/08 09:29:08;;;;;;;13.73;5.40;;;;;;;;;;4922176;29;20784;-75
2023/05/08 09:31:34;;;;;;;9.07;4.37;;;;;;;;;;4912895;29;20281;-74
2023/05/08 09:33:59;;;;;;;6.88;4.60;;;;;;;;;;4919263;29;20760;-75
2023/05/08 09:36:28;;;;;;;8.38;5.65;;;;;;;;;;4911971;29;20035;-73
2023/05/08 09:38:53;;;;;;;9.00;5.57;;;;;;;;;;4908283;29;20123;-74
2023/05/08 09:41:20;;;;;;;7.68;4.85;;;;;;;;;;4917865;29;20119;-73
2023/05/08 09:44:01;;;;;;;8.80;4.85;;;;;;;14.37;nan;100925.97;4920981;29;20118;-74
2023/05/08 09:46:26;;;;;;;7.07;5.00;;;;;;;;;;4922211;29;20127;-74
2023/05/08 09:48:52;;;;;;;8.77;4.77;;;;;;;;;;4920964;29;20158;-73
2023/05/08 09:51:18;;;;;;;8.25;4.82;;;;;;;;;;4921541;29;20171;-73
2023/05/08 09:53:43;;;;;;;9.13;4.82;;;;;;;;;;4922675;29;20134;-74
2023/05/08 09:56:09;;;;;;;6.43;4.72;;;;;;;;;;4928657;29;20036;-74
2023/05/08 09:58:43;;;;;;;9.15;5.30;;;;;;;;;;4928696;29;20052;-73
2023/05/08 10:01:27;;;;;;;9.07;5.50;;;;;;;;;;4925818;29;20375;-74
2023/05/08 10:03:53;;;;;;;7.28;4.60;;;;;;;;;;4925352;29;20032;-73
2023/05/08 10:06:18;;;;;;;7.17;4.67;;;;;;;;;;4929564;29;20054;-73
2023/05/08 10:08:44;;;;;;;10.50;6.33;;;;;;;;;;4926977;29;20285;-73
2023/05/08 10:11:16;;;;;;;6.80;5.05;;;;;;;;;;4907113;29;20119;-74
2023/05/08 10:13:42;;;;;;;9.18;5.15;;;;;;;;;;4913778;29;20073;-72
2023/05/08 10:16:10;;;;;;;5.10;4.32;;;;;;;;;;4924987;29;20028;-72
2023/05/08 10:18:37;;;;;;;8.02;4.60;;;;;;;;;;4923467;29;20031;-75
2023/05/08 10:21:04;;;;;;;5.35;4.25;;;;;;;;;;4908889;29;20036;-73
2023/05/08 10:23:32;;;;;;;9.90;4.20;;;;;;;;;;4914706;29;20671;-75
2023/05/08 10:25:59;;;;;;;9.90;4.30;;;;;;;;;;4911717;29;20024;-74
2023/05/08 10:28:39;;;;;;;10.18;4.03;;;;;;;;;;4924312;29;20040;-74
2023/05/08 10:31:06;;;;;;;5.03;3.38;;;;;;;;;;4912737;29;20494;-74
2023/05/08 10:33:34;;;;;;;7.53;3.95;;;;;;;;;;4922050;29;20039;-74
2023/05/08 10:36:00;;;;;;;6.47;3.70;;;;;;;;;;4921554;29;20514;-73
2023/05/08 10:38:26;;;;;;;6.65;3.38;;;;;;;;;;4922477;29;20082;-74
2023/05/08 10:40:56;;;;;;;5.07;3.42;;;;;;;;;;4922524;29;20036;-73
2023/05/08 10:43:25;;;;;;;8.98;3.83;;;;;;;;;;4909104;29;20477;-72
2023/05/08 10:45:54;;;;;;;4.97;3.65;;;;;;;;;;4920603;29;20472;-72
2023/05/08 10:48:20;;;;;;;7.90;3.60;;;;;;;;;;4923752;29;20036;-73
2023/05/08 10:51:03;;;;;;;4.85;3.60;;;;;;;;;;4922116;29;20040;-73
2023/05/08 10:53:47;;;;;;;8.57;3.47;;;;;;;;;;4905713;29;20032;-74
2023/05/08 10:56:13;;;;;;;4.43;3.53;;;;;;;;;;4918631;29;20099;-74
2023/05/08 10:58:39;;;;;;;6.57;3.50;;;;;;;;;;4921789;29;20178;-72
2023/05/08 11:01:10;;;;;;;5.93;3.45;;;;;;;;;;4920170;29;20039;-72
2023/05/08 11:03:43;;;;;;;4.68;3.00;;;;;;;;;;4911561;29;20136;-75
2023/05/08 11:06:08;;;;;;;4.93;3.28;;;;;;;;;;4914678;29;20031;-74
2023/05/08 11:08:42;;;;;;;4.95;3.08;;;;;;;;;;4922666;29;20055;-74
2023/05/08 11:11:16;;;;;;;3.83;3.42;;;;;;;16.63;nan;100922.75;4921735;29;20020;-73
2023/05/08 11:14:07;;;;;;;6.50;3.45;;;;;;;;;;4921722;29;20120;-74
2023/05/08 11:16:52;;;;;;;4.05;3.08;;;;;;;;;;4919849;29;20109;-73
2023/05/08 11:19:18;;;;;;;5.20;3.17;;;;;;;;;;4913031;29;20474;-71
2023/05/08 11:22:02;;;;;;;6.25;4.15;;;;;;;;;;4920039;29;20070;-74
2023/05/08 11:24:35;;;;;;;5.68;3.70;;;;;;;;;;4921842;29;20024;-72
2023/05/08 11:27:00;;;;;;;5.90;3.58;;;;;;;;;;4919521;29;20042;-74
2023/05/08 11:29:25;;;;;;;5.43;3.03;;;;;;;;;;4920371;29;20044;-73
2023/05/08 11:31:51;;;;;;;4.90;3.37;;;;;;;;;;4921214;29;20691;-72
2023/05/08 11:34:35;;;;;;;5.13;3.10;;;;;;;;;;4923108;29;20032;-74
2023/05/08 11:37:01;;;;;;;4.40;3.55;;;;;;;;;;4912639;29;20028;-74
2023/05/08 11:39:26;;;;;;;7.15;3.47;;;;;;;;;;4918044;29;20130;-72
2023/05/08 11:41:51;;;;;;;5.32;3.38;;;;;;;16.92;nan;100891.34;4922733;29;20019;-74
2023/05/08 11:44:21;;;;;;;6.65;3.50;;;;;;;;;;4907590;29;20032;-74
2023/05/08 11:46:51;;;;;;;4.80;3.88;;;;;;;;;;4923301;29;20110;-74
2023/05/08 11:49:17;;;;;;;3.55;3.08;;;;;;;;;;4920261;29;20024;-72
2023/05/08 11:51:44;;;;;;;6.47;2.83;;;;;;;;;;4918558;29;20032;-71
2023/05/08 11:54:11;;;;;;;3.65;3.10;;;;;;;;;;4918515;29;20765;-71
2023/05/08 11:56:37;;;;;;;5.07;2.80;;;;;;;;;;4920893;29;20083;-74
2023/05/08 11:59:04;;;;;;;6.07;3.22;;;;;;;;;;4920050;29;20028;-73
2023/05/08 12:01:30;;;;;;;6.78;3.35;;;;;;;;;;4919608;29;20402;-73
2023/05/08 12:04:06;;;;;;;6.88;3.10;;;;;;;17.39;nan;100858.66;4922686;29;20071;-72
2023/05/08 12:06:32;;;;;;;8.93;3.55;;;;;;;;;;4907249;29;20051;-74
2023/05/08 12:08:58;;;;;;;6.15;2.95;;;;;;;;;;4921540;29;20030;-72
2023/05/08 12:11:23;;;;;;;4.07;2.80;;;;;;;;;;4921297;29;20031;-72
2023/05/08 12:13:49;;;;;;;5.60;2.75;;;;;;;;;;4904188;29;20063;-73
2023/05/08 12:16:15;;;;;;;5.78;3.20;;;;;;;;;;4906283;29;20020;-73
2023/05/08 12:18:41;;;;;;;7.50;3.53;;;;;;;;;;4921696;29;20040;-71
2023/05/08 12:21:06;;;;;;;3.63;2.60;;;;;;;17.78;nan;100879.59;4917710;29;20364;-72
2023/05/08 12:23:31;;;;;;;4.55;2.80;;;;;;;;;;4921544;29;20036;-72
2023/05/08 12:26:00;;;;;;;4.25;2.47;;;;;;;;;;4905500;29;20478;-72
2023/05/08 12:28:26;;;;;;;4.72;2.85;;;;;;;;;;4919124;29;20510;-72
2023/05/08 12:30:55;;;;;;;4.07;2.75;;;;;;;17.79;nan;100894.53;4912233;29;20027;-72
2023/05/08 12:33:20;;;;;;;2.75;2.40;;;;;;;;;;4920832;29;20029;-72
2023/05/08 12:35:46;;;;;;;7.07;2.67;;;;;;;18.00;nan;100900.72;4922563;29;20036;-72
2023/05/08 12:38:11;;;;;;;6.05;2.40;;;;;;;;;;4919917;29;20394;-71
2023/05/08 12:40:41;;;;;;;4.55;2.55;;;;;;;;;;4906903;29;20035;-71
2023/05/08 12:43:06;;;;;;;5.75;2.40;;;;;;;;;;4920379;29;20031;-70
2023/05/08 12:45:32;;;;;;;5.67;1.97;;;;;;;;;;4908223;29;20044;-72
2023/05/08 12:48:08;;;;;;;5.25;2.80;;;;;;;;;;4918568;29;20326;-72
2023/05/08 12:50:44;;;;;;;14.43;3.25;;;;;;;;;;4910541;29;20040;-72